sensor_id;sensor_type;location;lat;lon;timestamp;P1;durP1;ratioP1;P2;durP2;ratioP2
69199;SDS011;56313;49.804;9.952;2022-07-29T00:00:03;10.23;;;4.20;;
69199;SDS011;56313;49.804;9.952;2022-07-29T00:02:36;12.07;;;3.90;;
69199;SDS011;56313;49.804;9.952;2022-07-29T00:05:09;8.10;;;3.92;;
69199;SDS011;56313;49.804;9.952;2022-07-29T00:07:57;11.20;;;5.40;;
69199;SDS011;56313;49.804;9.952;2022-07-29T00:10:27;9.40;;;4.47;;
69199;SDS011;56313;49.804;9.952;2022-07-29T00:13:10;10.32;;;4.22;;
69199;SDS011;56313;49.804;9.952;2022-07-29T00:15:41;8.98;;;4.47;;
69199;SDS011;56313;49.804;9.952;2022-07-29T00:18:09;8.63;;;5.30;;
69199;SDS011;56313;49.804;9.952;2022-07-29T00:20:41;7.68;;;4.10;;
69199;SDS011;56313;49.804;9.952;2022-07-29T00:23:12;7.90;;;3.70;;
69199;SDS011;56313;49.804;9.952;2022-07-29T00:25:49;8.70;;;4.68;;
69199;SDS011;56313;49.804;9.952;2022-07-29T00:28:23;7.47;;;4.30;;
69199;SDS011;56313;49.804;9.952;2022-07-29T00:30:53;8.73;;;4.40;;
69199;SDS011;56313;49.804;9.952;2022-07-29T00:33:22;6.88;;;4.25;;
69199;SDS011;56313;49.804;9.952;2022-07-29T00:35:50;9.48;;;4.65;;
69199;SDS011;56313;49.804;9.952;2022-07-29T00:38:17;11.13;;;4.28;;
69199;SDS011;56313;49.804;9.952;2022-07-29T00:40:57;12.30;;;4.63;;
69199;SDS011;56313;49.804;9.952;2022-07-29T00:43:22;7.10;;;4.60;;
69199;SDS011;56313;49.804;9.952;2022-07-29T00:45:50;9.10;;;4.65;;
69199;SDS011;56313;49.804;9.952;2022-07-29T00:48:21;11.65;;;4.45;;
69199;SDS011;56313;49.804;9.952;2022-07-29T00:50:47;13.65;;;5.13;;
69199;SDS011;56313;49.804;9.952;2022-07-29T00:53:23;7.45;;;4.57;;
69199;SDS011;56313;49.804;9.952;2022-07-29T00:55:53;9.65;;;4.65;;
69199;SDS011;56313;49.804;9.952;2022-07-29T00:58:29;9.50;;;4.53;;
69199;SDS011;56313;49.804;9.952;2022-07-29T01:00:57;7.57;;;4.43;;
69199;SDS011;56313;49.804;9.952;2022-07-29T01:03:25;11.40;;;4.88;;
69199;SDS011;56313;49.804;9.952;2022-07-29T01:05:54;14.15;;;4.72;;
69199;SDS011;56313;49.804;9.952;2022-07-29T01:08:24;8.32;;;4.20;;
69199;SDS011;56313;49.804;9.952;2022-07-29T01:10:50;12.82;;;4.75;;
69199;SDS011;56313;49.804;9.952;2022-07-29T01:13:19;11.68;;;4.68;;
69199;SDS011;56313;49.804;9.952;2022-07-29T01:15:58;9.38;;;4.20;;
69199;SDS011;56313;49.804;9.952;2022-07-29T01:18:44;8.50;;;4.72;;
69199;SDS011;56313;49.804;9.952;2022-07-29T01:24:33;10.27;;;4.40;;
69199;SDS011;56313;49.804;9.952;2022-07-29T01:30:24;11.07;;;4.30;;
69199;SDS011;56313;49.804;9.952;2022-07-29T01:32:56;6.82;;;4.22;;
69199;SDS011;56313;49.804;9.952;2022-07-29T01:35:42;8.45;;;4.50;;
69199;SDS011;56313;49.804;9.952;2022-07-29T01:38:21;11.88;;;4.20;;
69199;SDS011;56313;49.804;9.952;2022-07-29T01:41:14;10.18;;;3.92;;
69199;SDS011;56313;49.804;9.952;2022-07-29T01:44:09;8.95;;;4.05;;
69199;SDS011;56313;49.804;9.952;2022-07-29T01:46:38;8.60;;;4.65;;
69199;SDS011;56313;49.804;9.952;2022-07-29T01:49:34;7.28;;;4.07;;
69199;SDS011;56313;49.804;9.952;2022-07-29T01:52:19;7.75;;;4.05;;
69199;SDS011;56313;49.804;9.952;2022-07-29T01:54:56;9.00;;;4.35;;
69199;SDS011;56313;49.804;9.952;2022-07-29T01:57:28;10.68;;;4.40;;
69199;SDS011;56313;49.804;9.952;2022-07-29T02:00:06;7.20;;;3.97;;
69199;SDS011;56313;49.804;9.952;2022-07-29T02:02:57;8.38;;;3.60;;
69199;SDS011;56313;49.804;9.952;2022-07-29T02:05:39;9.30;;;4.30;;
69199;SDS011;56313;49.804;9.952;2022-07-29T02:08:07;8.10;;;4.28;;
69199;SDS011;56313;49.804;9.952;2022-07-29T02:10:40;11.93;;;4.30;;
69199;SDS011;56313;49.804;9.952;2022-07-29T02:13:26;5.97;;;4.07;;
69199;SDS011;56313;49.804;9.952;2022-07-29T02:16:06;7.70;;;4.30;;
69199;SDS011;56313;49.804;9.952;2022-07-29T02:21:39;9.85;;;3.90;;
69199;SDS011;56313;49.804;9.952;2022-07-29T02:24:53;12.67;;;3.63;;
69199;SDS011;56313;49.804;9.952;2022-07-29T02:27:42;7.78;;;3.50;;
69199;SDS011;56313;49.804;9.952;2022-07-29T02:30:40;9.10;;;4.13;;
69199;SDS011;56313;49.804;9.952;2022-07-29T02:33:16;8.65;;;3.40;;
69199;SDS011;56313;49.804;9.952;2022-07-29T02:36:04;6.75;;;3.25;;
69199;SDS011;56313;49.804;9.952;2022-07-29T02:38:33;7.15;;;3.50;;
69199;SDS011;56313;49.804;9.952;2022-07-29T02:44:34;12.20;;;3.53;;
69199;SDS011;56313;49.804;9.952;2022-07-29T02:53:22;6.28;;;3.70;;
69199;SDS011;56313;49.804;9.952;2022-07-29T02:56:16;7.05;;;3.60;;
69199;SDS011;56313;49.804;9.952;2022-07-29T02:59:23;7.60;;;3.55;;
69199;SDS011;56313;49.804;9.952;2022-07-29T03:01:52;8.82;;;3.25;;
69199;SDS011;56313;49.804;9.952;2022-07-29T03:07:01;5.68;;;3.55;;
69199;SDS011;56313;49.804;9.952;2022-07-29T03:09:30;13.55;;;3.55;;
69199;SDS011;56313;49.804;9.952;2022-07-29T03:11:56;10.00;;;3.40;;
69199;SDS011;56313;49.804;9.952;2022-07-29T03:14:43;7.32;;;3.15;;
69199;SDS011;56313;49.804;9.952;2022-07-29T03:19:57;8.65;;;3.60;;
69199;SDS011;56313;49.804;9.952;2022-07-29T03:22:24;8.10;;;3.55;;
69199;SDS011;56313;49.804;9.952;2022-07-29T03:24:53;5.88;;;3.13;;
69199;SDS011;56313;49.804;9.952;2022-07-29T03:27:24;10.48;;;3.45;;
69199;SDS011;56313;49.804;9.952;2022-07-29T03:29:52;8.75;;;3.35;;
69199;SDS011;56313;49.804;9.952;2022-07-29T03:32:41;8.75;;;3.78;;
69199;SDS011;56313;49.804;9.952;2022-07-29T03:38:32;9.60;;;3.20;;
69199;SDS011;56313;49.804;9.952;2022-07-29T03:44:19;6.45;;;3.30;;
69199;SDS011;56313;49.804;9.952;2022-07-29T03:47:20;5.57;;;2.97;;
69199;SDS011;56313;49.804;9.952;2022-07-29T03:49:53;6.93;;;3.40;;
69199;SDS011;56313;49.804;9.952;2022-07-29T03:53:14;7.90;;;3.88;;
69199;SDS011;56313;49.804;9.952;2022-07-29T03:55:41;10.60;;;3.33;;
69199;SDS011;56313;49.804;9.952;2022-07-29T04:01:12;8.75;;;3.17;;
69199;SDS011;56313;49.804;9.952;2022-07-29T04:04:08;9.02;;;3.63;;
69199;SDS011;56313;49.804;9.952;2022-07-29T04:06:43;5.88;;;3.20;;
69199;SDS011;56313;49.804;9.952;2022-07-29T04:09:22;8.63;;;3.30;;
69199;SDS011;56313;49.804;9.952;2022-07-29T04:11:59;9.77;;;3.60;;
69199;SDS011;56313;49.804;9.952;2022-07-29T04:14:33;6.85;;;2.75;;
69199;SDS011;56313;49.804;9.952;2022-07-29T04:19:56;5.78;;;3.20;;
69199;SDS011;56313;49.804;9.952;2022-07-29T04:22:30;8.65;;;3.25;;
69199;SDS011;56313;49.804;9.952;2022-07-29T04:25:06;5.53;;;3.55;;
69199;SDS011;56313;49.804;9.952;2022-07-29T04:27:48;9.63;;;3.40;;
69199;SDS011;56313;49.804;9.952;2022-07-29T04:30:41;5.50;;;3.17;;
69199;SDS011;56313;49.804;9.952;2022-07-29T04:33:26;6.05;;;3.30;;
69199;SDS011;56313;49.804;9.952;2022-07-29T04:36:06;8.23;;;3.08;;
69199;SDS011;56313;49.804;9.952;2022-07-29T04:38:36;6.68;;;3.65;;
69199;SDS011;56313;49.804;9.952;2022-07-29T04:41:04;9.23;;;3.85;;
69199;SDS011;56313;49.804;9.952;2022-07-29T04:43:48;7.75;;;3.40;;
69199;SDS011;56313;49.804;9.952;2022-07-29T04:46:48;11.48;;;3.78;;
69199;SDS011;56313;49.804;9.952;2022-07-29T04:52:27;8.27;;;3.60;;
69199;SDS011;56313;49.804;9.952;2022-07-29T04:54:56;8.05;;;3.05;;
69199;SDS011;56313;49.804;9.952;2022-07-29T04:57:26;11.60;;;3.38;;
69199;SDS011;56313;49.804;9.952;2022-07-29T05:03:34;8.27;;;3.30;;
69199;SDS011;56313;49.804;9.952;2022-07-29T05:09:19;8.93;;;3.67;;
69199;SDS011;56313;49.804;9.952;2022-07-29T05:14:22;10.02;;;3.63;;
69199;SDS011;56313;49.804;9.952;2022-07-29T05:16:51;12.18;;;3.40;;
69199;SDS011;56313;49.804;9.952;2022-07-29T05:19:25;10.55;;;3.80;;
69199;SDS011;56313;49.804;9.952;2022-07-29T05:22:03;10.20;;;3.65;;
69199;SDS011;56313;49.804;9.952;2022-07-29T05:27:19;9.40;;;3.28;;
69199;SDS011;56313;49.804;9.952;2022-07-29T05:29:47;9.38;;;3.40;;
69199;SDS011;56313;49.804;9.952;2022-07-29T05:49:54;7.18;;;2.92;;
69199;SDS011;56313;49.804;9.952;2022-07-29T06:09:59;9.68;;;3.45;;
69199;SDS011;56313;49.804;9.952;2022-07-29T06:12:56;7.88;;;3.55;;
69199;SDS011;56313;49.804;9.952;2022-07-29T06:15:57;9.13;;;3.58;;
69199;SDS011;56313;49.804;9.952;2022-07-29T06:33:19;4.97;;;2.78;;
69199;SDS011;56313;49.804;9.952;2022-07-29T06:36:16;5.10;;;3.10;;
69199;SDS011;56313;49.804;9.952;2022-07-29T06:39:31;7.90;;;3.00;;
69199;SDS011;56313;49.804;9.952;2022-07-29T06:42:44;7.03;;;3.10;;
69199;SDS011;56313;49.804;9.952;2022-07-29T07:40:36;9.32;;;3.63;;
69199;SDS011;56313;49.804;9.952;2022-07-29T07:43:25;10.30;;;2.90;;
69199;SDS011;56313;49.804;9.952;2022-07-29T07:45:50;6.75;;;3.40;;
69199;SDS011;56313;49.804;9.952;2022-07-29T07:48:16;7.68;;;3.35;;
69199;SDS011;56313;49.804;9.952;2022-07-29T07:50:49;13.82;;;4.20;;
69199;SDS011;56313;49.804;9.952;2022-07-29T07:53:20;10.88;;;3.25;;
69199;SDS011;56313;49.804;9.952;2022-07-29T07:55:48;10.23;;;3.97;;
69199;SDS011;56313;49.804;9.952;2022-07-29T07:58:13;8.25;;;3.50;;
69199;SDS011;56313;49.804;9.952;2022-07-29T08:04:07;9.98;;;3.28;;
69199;SDS011;56313;49.804;9.952;2022-07-29T08:06:42;5.53;;;3.33;;
69199;SDS011;56313;49.804;9.952;2022-07-29T08:09:28;5.97;;;2.90;;
69199;SDS011;56313;49.804;9.952;2022-07-29T08:12:04;8.75;;;2.92;;
69199;SDS011;56313;49.804;9.952;2022-07-29T08:14:55;4.43;;;2.80;;
69199;SDS011;56313;49.804;9.952;2022-07-29T08:17:33;7.90;;;3.00;;
69199;SDS011;56313;49.804;9.952;2022-07-29T08:20:02;6.47;;;2.85;;
69199;SDS011;56313;49.804;9.952;2022-07-29T09:02:12;7.30;;;3.42;;
69199;SDS011;56313;49.804;9.952;2022-07-29T09:04:50;5.75;;;3.08;;
69199;SDS011;56313;49.804;9.952;2022-07-29T09:10:55;11.65;;;3.53;;
69199;SDS011;56313;49.804;9.952;2022-07-29T09:17:00;6.10;;;3.70;;
69199;SDS011;56313;49.804;9.952;2022-07-29T09:19:48;10.63;;;3.00;;
69199;SDS011;56313;49.804;9.952;2022-07-29T09:26:46;7.15;;;3.30;;
69199;SDS011;56313;49.804;9.952;2022-07-29T09:29:22;4.97;;;3.22;;
69199;SDS011;56313;49.804;9.952;2022-07-29T09:35:19;7.80;;;3.03;;
69199;SDS011;56313;49.804;9.952;2022-07-29T09:37:53;5.30;;;3.10;;
69199;SDS011;56313;49.804;9.952;2022-07-29T09:41:04;6.80;;;3.20;;
69199;SDS011;56313;49.804;9.952;2022-07-29T09:56:08;5.30;;;3.33;;
69199;SDS011;56313;49.804;9.952;2022-07-29T10:02:19;7.32;;;3.47;;
69199;SDS011;56313;49.804;9.952;2022-07-29T10:11:26;6.95;;;3.28;;
69199;SDS011;56313;49.804;9.952;2022-07-29T10:14:22;8.43;;;3.72;;
69199;SDS011;56313;49.804;9.952;2022-07-29T10:16:50;7.55;;;3.00;;
69199;SDS011;56313;49.804;9.952;2022-07-29T10:22:58;7.28;;;3.40;;
69199;SDS011;56313;49.804;9.952;2022-07-29T10:25:24;5.20;;;3.00;;
69199;SDS011;56313;49.804;9.952;2022-07-29T10:27:53;7.45;;;3.58;;
69199;SDS011;56313;49.804;9.952;2022-07-29T10:30:20;9.00;;;3.53;;
69199;SDS011;56313;49.804;9.952;2022-07-29T10:44:24;9.15;;;3.50;;
69199;SDS011;56313;49.804;9.952;2022-07-29T10:46:53;7.32;;;3.58;;
69199;SDS011;56313;49.804;9.952;2022-07-29T10:49:25;6.00;;;3.10;;
69199;SDS011;56313;49.804;9.952;2022-07-29T10:51:56;5.60;;;3.35;;
69199;SDS011;56313;49.804;9.952;2022-07-29T10:54:46;5.97;;;3.28;;
69199;SDS011;56313;49.804;9.952;2022-07-29T11:23:40;5.57;;;3.47;;
69199;SDS011;56313;49.804;9.952;2022-07-29T11:32:14;6.32;;;3.33;;
69199;SDS011;56313;49.804;9.952;2022-07-29T11:50:29;4.72;;;3.30;;
69199;SDS011;56313;49.804;9.952;2022-07-29T11:56:45;8.82;;;3.50;;
69199;SDS011;56313;49.804;9.952;2022-07-29T12:01:57;8.73;;;4.03;;
69199;SDS011;56313;49.804;9.952;2022-07-29T12:04:24;10.10;;;3.53;;
69199;SDS011;56313;49.804;9.952;2022-07-29T12:06:54;7.07;;;3.08;;
69199;SDS011;56313;49.804;9.952;2022-07-29T12:19:45;5.50;;;3.20;;
69199;SDS011;56313;49.804;9.952;2022-07-29T12:33:02;10.07;;;3.50;;
69199;SDS011;56313;49.804;9.952;2022-07-29T12:35:42;11.82;;;3.90;;
69199;SDS011;56313;49.804;9.952;2022-07-29T12:38:25;7.00;;;3.70;;
69199;SDS011;56313;49.804;9.952;2022-07-29T12:41:02;8.50;;;3.50;;
69199;SDS011;56313;49.804;9.952;2022-07-29T14:59:52;13.02;;;6.70;;
69199;SDS011;56313;49.804;9.952;2022-07-29T15:02:22;6.78;;;5.93;;
69199;SDS011;56313;49.804;9.952;2022-07-29T15:04:50;8.38;;;6.35;;
69199;SDS011;56313;49.804;9.952;2022-07-29T15:07:38;11.70;;;6.47;;
69199;SDS011;56313;49.804;9.952;2022-07-29T15:10:09;8.65;;;5.72;;
69199;SDS011;56313;49.804;9.952;2022-07-29T15:12:39;8.32;;;6.13;;
69199;SDS011;56313;49.804;9.952;2022-07-29T15:15:08;8.63;;;6.40;;
69199;SDS011;56313;49.804;9.952;2022-07-29T15:17:45;7.88;;;5.38;;
69199;SDS011;56313;49.804;9.952;2022-07-29T15:23:02;10.57;;;5.22;;
69199;SDS011;56313;49.804;9.952;2022-07-29T15:25:40;7.65;;;4.40;;
69199;SDS011;56313;49.804;9.952;2022-07-29T15:28:18;6.47;;;4.25;;
69199;SDS011;56313;49.804;9.952;2022-07-29T15:30:48;6.47;;;4.50;;
69199;SDS011;56313;49.804;9.952;2022-07-29T15:33:16;8.05;;;4.88;;
69199;SDS011;56313;49.804;9.952;2022-07-29T15:35:45;8.57;;;5.00;;
69199;SDS011;56313;49.804;9.952;2022-07-29T15:38:10;11.00;;;4.53;;
69199;SDS011;56313;49.804;9.952;2022-07-29T15:40:48;6.45;;;4.68;;
69199;SDS011;56313;49.804;9.952;2022-07-29T15:43:16;7.50;;;4.90;;
69199;SDS011;56313;49.804;9.952;2022-07-29T15:45:42;7.03;;;4.43;;
69199;SDS011;56313;49.804;9.952;2022-07-29T15:48:29;8.80;;;4.88;;
69199;SDS011;56313;49.804;9.952;2022-07-29T15:50:54;8.52;;;4.90;;
69199;SDS011;56313;49.804;9.952;2022-07-29T15:53:20;7.00;;;5.70;;
69199;SDS011;56313;49.804;9.952;2022-07-29T15:55:45;9.25;;;5.53;;
69199;SDS011;56313;49.804;9.952;2022-07-29T15:58:10;10.52;;;6.00;;
69199;SDS011;56313;49.804;9.952;2022-07-29T16:00:38;8.68;;;5.95;;
69199;SDS011;56313;49.804;9.952;2022-07-29T16:03:06;8.35;;;5.63;;
69199;SDS011;56313;49.804;9.952;2022-07-29T16:05:32;6.63;;;4.72;;
69199;SDS011;56313;49.804;9.952;2022-07-29T16:07:57;6.40;;;4.38;;
69199;SDS011;56313;49.804;9.952;2022-07-29T16:10:27;5.28;;;4.10;;
69199;SDS011;56313;49.804;9.952;2022-07-29T16:12:53;6.50;;;4.68;;
69199;SDS011;56313;49.804;9.952;2022-07-29T16:15:28;7.15;;;4.88;;
69199;SDS011;56313;49.804;9.952;2022-07-29T16:17:54;7.72;;;5.03;;
69199;SDS011;56313;49.804;9.952;2022-07-29T16:20:19;7.13;;;4.50;;
69199;SDS011;56313;49.804;9.952;2022-07-29T16:22:44;6.38;;;4.88;;
69199;SDS011;56313;49.804;9.952;2022-07-29T16:25:10;7.00;;;4.28;;
69199;SDS011;56313;49.804;9.952;2022-07-29T16:27:35;6.55;;;5.30;;
69199;SDS011;56313;49.804;9.952;2022-07-29T16:30:01;9.23;;;5.07;;
69199;SDS011;56313;49.804;9.952;2022-07-29T16:32:27;5.50;;;4.63;;
69199;SDS011;56313;49.804;9.952;2022-07-29T16:34:52;6.97;;;4.88;;
69199;SDS011;56313;49.804;9.952;2022-07-29T16:37:17;7.43;;;4.97;;
69199;SDS011;56313;49.804;9.952;2022-07-29T16:39:43;7.63;;;5.03;;
69199;SDS011;56313;49.804;9.952;2022-07-29T16:42:08;7.22;;;4.70;;
69199;SDS011;56313;49.804;9.952;2022-07-29T16:44:34;15.77;;;11.93;;
69199;SDS011;56313;49.804;9.952;2022-07-29T16:46:59;6.18;;;5.20;;
69199;SDS011;56313;49.804;9.952;2022-07-29T16:49:24;6.90;;;4.70;;
69199;SDS011;56313;49.804;9.952;2022-07-29T16:51:50;8.40;;;5.63;;
69199;SDS011;56313;49.804;9.952;2022-07-29T16:54:15;6.88;;;4.85;;
69199;SDS011;56313;49.804;9.952;2022-07-29T16:56:41;6.43;;;4.90;;
69199;SDS011;56313;49.804;9.952;2022-07-29T16:59:07;7.00;;;4.82;;
69199;SDS011;56313;49.804;9.952;2022-07-29T17:01:35;5.65;;;4.60;;
69199;SDS011;56313;49.804;9.952;2022-07-29T17:04:01;6.03;;;4.78;;
69199;SDS011;56313;49.804;9.952;2022-07-29T17:06:34;5.50;;;4.63;;
69199;SDS011;56313;49.804;9.952;2022-07-29T17:09:09;9.48;;;5.43;;
69199;SDS011;56313;49.804;9.952;2022-07-29T17:11:35;4.63;;;4.05;;
69199;SDS011;56313;49.804;9.952;2022-07-29T17:14:05;5.80;;;5.10;;
69199;SDS011;56313;49.804;9.952;2022-07-29T17:16:33;7.50;;;4.32;;
69199;SDS011;56313;49.804;9.952;2022-07-29T17:19:01;5.38;;;4.85;;
69199;SDS011;56313;49.804;9.952;2022-07-29T17:21:27;6.95;;;4.57;;
69199;SDS011;56313;49.804;9.952;2022-07-29T17:23:52;5.97;;;4.82;;
69199;SDS011;56313;49.804;9.952;2022-07-29T17:26:19;6.53;;;4.50;;
69199;SDS011;56313;49.804;9.952;2022-07-29T17:28:47;6.32;;;4.68;;
69199;SDS011;56313;49.804;9.952;2022-07-29T17:31:13;5.65;;;4.45;;
69199;SDS011;56313;49.804;9.952;2022-07-29T17:33:38;5.38;;;4.40;;
69199;SDS011;56313;49.804;9.952;2022-07-29T17:36:04;5.68;;;4.38;;
69199;SDS011;56313;49.804;9.952;2022-07-29T17:38:48;8.27;;;4.80;;
69199;SDS011;56313;49.804;9.952;2022-07-29T17:41:36;4.80;;;4.30;;
69199;SDS011;56313;49.804;9.952;2022-07-29T17:44:04;5.90;;;4.57;;
69199;SDS011;56313;49.804;9.952;2022-07-29T17:46:30;6.97;;;5.00;;
69199;SDS011;56313;49.804;9.952;2022-07-29T17:48:55;5.72;;;4.78;;
69199;SDS011;56313;49.804;9.952;2022-07-29T17:51:22;5.90;;;4.80;;
69199;SDS011;56313;49.804;9.952;2022-07-29T17:53:51;6.70;;;4.43;;
69199;SDS011;56313;49.804;9.952;2022-07-29T17:56:17;5.45;;;4.57;;
69199;SDS011;56313;49.804;9.952;2022-07-29T17:58:42;7.00;;;4.70;;
69199;SDS011;56313;49.804;9.952;2022-07-29T18:01:14;5.72;;;4.70;;
69199;SDS011;56313;49.804;9.952;2022-07-29T18:03:39;6.00;;;4.70;;
69199;SDS011;56313;49.804;9.952;2022-07-29T18:06:07;6.38;;;5.05;;
69199;SDS011;56313;49.804;9.952;2022-07-29T18:08:34;5.03;;;4.53;;
69199;SDS011;56313;49.804;9.952;2022-07-29T18:11:00;7.03;;;5.00;;
69199;SDS011;56313;49.804;9.952;2022-07-29T18:13:25;5.85;;;4.95;;
69199;SDS011;56313;49.804;9.952;2022-07-29T18:15:51;7.70;;;5.30;;
69199;SDS011;56313;49.804;9.952;2022-07-29T18:18:16;11.38;;;6.60;;
69199;SDS011;56313;49.804;9.952;2022-07-29T18:20:42;7.10;;;5.28;;
69199;SDS011;56313;49.804;9.952;2022-07-29T18:23:08;9.52;;;5.90;;
69199;SDS011;56313;49.804;9.952;2022-07-29T18:25:37;7.57;;;5.25;;
69199;SDS011;56313;49.804;9.952;2022-07-29T18:28:29;8.18;;;5.88;;
69199;SDS011;56313;49.804;9.952;2022-07-29T18:33:37;7.10;;;5.35;;
69199;SDS011;56313;49.804;9.952;2022-07-29T18:36:05;6.70;;;5.05;;
69199;SDS011;56313;49.804;9.952;2022-07-29T18:38:34;9.88;;;6.85;;
69199;SDS011;56313;49.804;9.952;2022-07-29T18:41:02;7.30;;;5.32;;
69199;SDS011;56313;49.804;9.952;2022-07-29T18:43:27;7.30;;;6.35;;
69199;SDS011;56313;49.804;9.952;2022-07-29T18:46:07;15.10;;;11.00;;
69199;SDS011;56313;49.804;9.952;2022-07-29T18:48:36;8.45;;;6.63;;
69199;SDS011;56313;49.804;9.952;2022-07-29T18:51:01;6.88;;;5.55;;
69199;SDS011;56313;49.804;9.952;2022-07-29T18:53:27;8.15;;;5.93;;
69199;SDS011;56313;49.804;9.952;2022-07-29T18:56:00;11.02;;;8.38;;
69199;SDS011;56313;49.804;9.952;2022-07-29T18:58:27;6.05;;;5.10;;
69199;SDS011;56313;49.804;9.952;2022-07-29T19:00:52;7.00;;;5.65;;
69199;SDS011;56313;49.804;9.952;2022-07-29T19:03:18;7.57;;;5.80;;
69199;SDS011;56313;49.804;9.952;2022-07-29T19:05:43;7.80;;;6.30;;
69199;SDS011;56313;49.804;9.952;2022-07-29T19:08:09;8.15;;;6.15;;
69199;SDS011;56313;49.804;9.952;2022-07-29T19:10:37;8.55;;;5.68;;
69199;SDS011;56313;49.804;9.952;2022-07-29T19:13:03;8.75;;;6.03;;
69199;SDS011;56313;49.804;9.952;2022-07-29T19:15:28;8.10;;;6.18;;
69199;SDS011;56313;49.804;9.952;2022-07-29T19:17:53;7.90;;;6.55;;
69199;SDS011;56313;49.804;9.952;2022-07-29T19:20:19;6.40;;;5.65;;
69199;SDS011;56313;49.804;9.952;2022-07-29T19:22:44;9.23;;;6.45;;
69199;SDS011;56313;49.804;9.952;2022-07-29T19:25:10;8.93;;;6.15;;
69199;SDS011;56313;49.804;9.952;2022-07-29T19:27:36;7.20;;;6.40;;
69199;SDS011;56313;49.804;9.952;2022-07-29T19:30:01;10.02;;;8.02;;
69199;SDS011;56313;49.804;9.952;2022-07-29T19:32:30;10.98;;;7.45;;
69199;SDS011;56313;49.804;9.952;2022-07-29T19:34:55;9.07;;;7.57;;
69199;SDS011;56313;49.804;9.952;2022-07-29T19:37:39;9.15;;;7.50;;
69199;SDS011;56313;49.804;9.952;2022-07-29T19:40:05;8.90;;;7.50;;
69199;SDS011;56313;49.804;9.952;2022-07-29T19:42:31;11.88;;;7.45;;
69199;SDS011;56313;49.804;9.952;2022-07-29T19:44:56;9.45;;;7.75;;
69199;SDS011;56313;49.804;9.952;2022-07-29T19:47:24;9.20;;;6.53;;
69199;SDS011;56313;49.804;9.952;2022-07-29T19:49:49;10.38;;;7.80;;
69199;SDS011;56313;49.804;9.952;2022-07-29T19:52:15;7.57;;;6.13;;
69199;SDS011;56313;49.804;9.952;2022-07-29T19:54:41;11.65;;;7.47;;
69199;SDS011;56313;49.804;9.952;2022-07-29T19:57:06;9.50;;;6.90;;
69199;SDS011;56313;49.804;9.952;2022-07-29T19:59:31;7.82;;;6.45;;
69199;SDS011;56313;49.804;9.952;2022-07-29T20:01:57;8.88;;;6.68;;
69199;SDS011;56313;49.804;9.952;2022-07-29T20:04:23;10.80;;;6.50;;
69199;SDS011;56313;49.804;9.952;2022-07-29T20:06:48;7.55;;;6.40;;
69199;SDS011;56313;49.804;9.952;2022-07-29T20:09:14;8.88;;;6.97;;
69199;SDS011;56313;49.804;9.952;2022-07-29T20:11:39;9.88;;;7.05;;
69199;SDS011;56313;49.804;9.952;2022-07-29T20:14:04;8.75;;;7.43;;
69199;SDS011;56313;49.804;9.952;2022-07-29T20:16:30;12.52;;;7.78;;
69199;SDS011;56313;49.804;9.952;2022-07-29T20:18:56;8.85;;;7.93;;
69199;SDS011;56313;49.804;9.952;2022-07-29T20:21:22;10.95;;;7.53;;
69199;SDS011;56313;49.804;9.952;2022-07-29T20:23:47;9.27;;;7.22;;
69199;SDS011;56313;49.804;9.952;2022-07-29T20:26:13;8.57;;;6.40;;
69199;SDS011;56313;49.804;9.952;2022-07-29T20:28:38;9.60;;;6.38;;
69199;SDS011;56313;49.804;9.952;2022-07-29T20:31:04;9.60;;;6.53;;
69199;SDS011;56313;49.804;9.952;2022-07-29T20:33:30;8.13;;;6.13;;
69199;SDS011;56313;49.804;9.952;2022-07-29T20:35:56;6.88;;;5.93;;
69199;SDS011;56313;49.804;9.952;2022-07-29T20:38:21;8.00;;;6.32;;
69199;SDS011;56313;49.804;9.952;2022-07-29T20:40:46;10.05;;;6.35;;
69199;SDS011;56313;49.804;9.952;2022-07-29T20:43:14;6.15;;;5.32;;
69199;SDS011;56313;49.804;9.952;2022-07-29T20:45:47;6.63;;;5.28;;
69199;SDS011;56313;49.804;9.952;2022-07-29T20:48:12;8.80;;;6.00;;
69199;SDS011;56313;49.804;9.952;2022-07-29T20:50:38;10.65;;;6.38;;
69199;SDS011;56313;49.804;9.952;2022-07-29T20:53:03;7.97;;;6.05;;
69199;SDS011;56313;49.804;9.952;2022-07-29T20:55:29;8.32;;;6.00;;
69199;SDS011;56313;49.804;9.952;2022-07-29T20:57:55;6.78;;;6.03;;
69199;SDS011;56313;49.804;9.952;2022-07-29T21:00:21;10.65;;;6.97;;
69199;SDS011;56313;49.804;9.952;2022-07-29T21:02:47;10.77;;;6.65;;
69199;SDS011;56313;49.804;9.952;2022-07-29T21:05:12;8.73;;;6.10;;
69199;SDS011;56313;49.804;9.952;2022-07-29T21:07:37;7.18;;;6.07;;
69199;SDS011;56313;49.804;9.952;2022-07-29T21:10:03;7.72;;;5.93;;
69199;SDS011;56313;49.804;9.952;2022-07-29T21:12:29;7.28;;;6.20;;
69199;SDS011;56313;49.804;9.952;2022-07-29T21:14:54;6.50;;;5.53;;
69199;SDS011;56313;49.804;9.952;2022-07-29T21:17:19;7.43;;;6.63;;
69199;SDS011;56313;49.804;9.952;2022-07-29T21:19:46;7.70;;;6.07;;
69199;SDS011;56313;49.804;9.952;2022-07-29T21:22:11;6.53;;;5.72;;
69199;SDS011;56313;49.804;9.952;2022-07-29T21:24:40;10.18;;;5.68;;
69199;SDS011;56313;49.804;9.952;2022-07-29T21:27:05;6.82;;;6.13;;
69199;SDS011;56313;49.804;9.952;2022-07-29T21:29:49;7.60;;;6.35;;
69199;SDS011;56313;49.804;9.952;2022-07-29T21:32:15;7.32;;;6.13;;
69199;SDS011;56313;49.804;9.952;2022-07-29T21:34:41;12.15;;;7.60;;
69199;SDS011;56313;49.804;9.952;2022-07-29T21:37:08;8.05;;;6.90;;
69199;SDS011;56313;49.804;9.952;2022-07-29T21:39:33;11.05;;;7.18;;
69199;SDS011;56313;49.804;9.952;2022-07-29T21:41:59;7.97;;;7.18;;
69199;SDS011;56313;49.804;9.952;2022-07-29T21:44:24;8.10;;;6.78;;
69199;SDS011;56313;49.804;9.952;2022-07-29T21:46:49;8.45;;;7.65;;
69199;SDS011;56313;49.804;9.952;2022-07-29T21:49:15;10.18;;;6.45;;
69199;SDS011;56313;49.804;9.952;2022-07-29T21:51:40;10.25;;;7.05;;
69199;SDS011;56313;49.804;9.952;2022-07-29T21:54:06;8.60;;;6.97;;
69199;SDS011;56313;49.804;9.952;2022-07-29T21:56:31;8.38;;;7.20;;
69199;SDS011;56313;49.804;9.952;2022-07-29T21:58:56;9.30;;;7.63;;
69199;SDS011;56313;49.804;9.952;2022-07-29T22:01:22;8.10;;;7.30;;
69199;SDS011;56313;49.804;9.952;2022-07-29T22:03:48;8.32;;;7.13;;
69199;SDS011;56313;49.804;9.952;2022-07-29T22:06:13;9.80;;;7.75;;
69199;SDS011;56313;49.804;9.952;2022-07-29T22:08:39;8.10;;;7.30;;
69199;SDS011;56313;49.804;9.952;2022-07-29T22:11:05;8.18;;;7.15;;
69199;SDS011;56313;49.804;9.952;2022-07-29T22:13:31;8.25;;;7.32;;
69199;SDS011;56313;49.804;9.952;2022-07-29T22:15:56;8.00;;;7.15;;
69199;SDS011;56313;49.804;9.952;2022-07-29T22:18:22;12.60;;;8.27;;
69199;SDS011;56313;49.804;9.952;2022-07-29T22:20:48;8.63;;;7.50;;
69199;SDS011;56313;49.804;9.952;2022-07-29T22:23:14;8.13;;;7.30;;
69199;SDS011;56313;49.804;9.952;2022-07-29T22:25:39;8.70;;;7.43;;
69199;SDS011;56313;49.804;9.952;2022-07-29T22:28:05;9.05;;;7.68;;
69199;SDS011;56313;49.804;9.952;2022-07-29T22:30:30;9.40;;;7.10;;
69199;SDS011;56313;49.804;9.952;2022-07-29T22:32:59;8.35;;;7.53;;
69199;SDS011;56313;49.804;9.952;2022-07-29T22:35:24;8.63;;;7.57;;
69199;SDS011;56313;49.804;9.952;2022-07-29T22:37:53;9.90;;;7.35;;
69199;SDS011;56313;49.804;9.952;2022-07-29T22:40:18;11.70;;;8.15;;
69199;SDS011;56313;49.804;9.952;2022-07-29T22:42:47;8.82;;;7.68;;
69199;SDS011;56313;49.804;9.952;2022-07-29T22:45:15;9.77;;;8.10;;
69199;SDS011;56313;49.804;9.952;2022-07-29T22:47:40;8.63;;;7.03;;
69199;SDS011;56313;49.804;9.952;2022-07-29T22:50:06;12.38;;;8.48;;
69199;SDS011;56313;49.804;9.952;2022-07-29T22:52:31;12.07;;;7.90;;
69199;SDS011;56313;49.804;9.952;2022-07-29T22:54:59;8.90;;;7.55;;
69199;SDS011;56313;49.804;9.952;2022-07-29T22:57:25;8.60;;;7.80;;
69199;SDS011;56313;49.804;9.952;2022-07-29T22:59:50;8.05;;;7.25;;
69199;SDS011;56313;49.804;9.952;2022-07-29T23:02:16;10.63;;;7.47;;